This is the latest recevied weather packets stored in our database for station/object 9W2YIE-13. If no packets are shown the sender has not sent any weather packets the latest 10 day(s).
| Time | Temp. | Humidity | Pressure | Rain* | Wind** | Luminosity | Snow |
|---|---|---|---|---|---|---|---|
| 1788100858 | 44.44° C | 34% | 1008 hPa | - | - | 0 W/m² | - |
| 1788099915 | 43.89° C | 35% | 1008 hPa | - | - | 0 W/m² | - |
| 1788098907 | 43.33° C | 36% | 1008 hPa | - | - | 0 W/m² | - |
| 1788097957 | 43.33° C | 36% | 1008 hPa | - | - | 0 W/m² | - |
| 1788097000 | 43.33° C | 36% | 1007 hPa | - | - | 0 W/m² | - |
| 1788096032 | 43.89° C | 34% | 1007 hPa | - | - | 0 W/m² | - |
| 1788095040 | 43.89° C | 34% | 1007 hPa | - | - | 0 W/m² | - |
| 1788094037 | 43.33° C | 35% | 1007 hPa | - | - | 0 W/m² | - |
| 1788093088 | 45.56° C | 31% | 1007 hPa | - | - | 0 W/m² | - |
| 1788092117 | 45.56° C | 32% | 1006 hPa | - | - | 0 W/m² | - |
| 1788091183 | 45° C | 33% | 1006 hPa | - | - | 0 W/m² | - |
| 1788090234 | 44.44° C | 33% | 1006 hPa | - | - | 0 W/m² | - |
| 1788089288 | 45.56° C | 31% | 1006 hPa | - | - | 0 W/m² | - |
| 1788088346 | 42.22° C | 35% | 1005 hPa | - | - | 0 W/m² | - |
| 1788087400 | 46.11° C | 31% | 1005 hPa | - | - | 0 W/m² | - |
| 1788086395 | 46.11° C | 31% | 1005 hPa | - | - | 0 W/m² | - |
| 1788085394 | 45° C | 33% | 1005 hPa | - | - | 0 W/m² | - |
| 1788084849 | 46.11° C | 32% | 1005 hPa | - | - | 0 W/m² | - |
| 1788083905 | 46.11° C | 31% | 1005 hPa | - | - | 0 W/m² | - |
| 1788083483 | 46.67° C | 31% | 1005 hPa | - | - | 0 W/m² | - |
| 1788082547 | 46.67° C | 32% | 1005 hPa | - | - | 0 W/m² | - |
| 1788081586 | 46.11° C | 33% | 1004 hPa | - | - | 0 W/m² | - |
| 1788080621 | 44.44° C | 34% | 1005 hPa | - | - | 0 W/m² | - |
| 1788079660 | 41.67° C | 38% | 1005 hPa | - | - | 0 W/m² | - |
| 1788079138 | 48.89° C | 23% | 1005 hPa | - | - | 0 W/m² | - |
* Rain since midnight (hover to see other rain measurements)
** Current wind speed in m/s (hover to see current wind gust speed)